Time;durP1;ratioP1;P1;durP2;ratioP2;P2;SDS_P1;SDS_P2;PMS_P1;PMS_P2;Temp;Humidity;BMP_temperature;BMP_pressure;BME280_temperature;BME280_humidity;BME280_pressure;Samples;Min_cycle;Max_cycle;Signal;HPM_P1;HPM_P2
2022/10/19 00:02:16;;;;;;;;;9.50;8.25;;;;;16.76;91.71;102010.16;5017562;28;45366;-47
2022/10/19 00:04:42;;;;;;;;;12.50;9.75;;;;;16.71;91.85;102000.69;5037137;28;45346;-47
2022/10/19 00:07:07;;;;;;;;;9.75;9.50;;;;;16.70;91.56;101990.09;5039022;28;45406;-44
2022/10/19 00:09:33;;;;;;;;;11.50;8.75;;;;;16.72;91.40;101980.03;5038500;28;45403;-44
2022/10/19 00:11:58;;;;;;;;;8.00;8.00;;;;;16.77;91.24;101993.03;5038656;28;45361;-48
2022/10/19 00:14:24;;;;;;;;;16.50;11.75;;;;;16.75;90.87;101995.03;5038729;28;45237;-44
2022/10/19 00:16:51;;;;;;;;;10.25;7.25;;;;;16.76;91.03;101991.34;5038771;28;45226;-44
2022/10/19 00:19:20;;;;;;;;;15.25;11.00;;;;;16.75;90.97;101987.81;5038146;28;47015;-48
2022/10/19 00:21:46;;;;;;;;;10.50;8.50;;;;;16.67;91.16;101972.44;5038426;28;45404;-47
2022/10/19 00:24:11;;;;;;;;;8.50;8.25;;;;;16.74;90.89;101979.94;5038479;28;45407;-43
2022/10/19 00:26:37;;;;;;;;;10.75;10.75;;;;;16.43;90.87;101929.28;5038677;28;45369;-47
2022/10/19 00:29:04;;;;;;;;;13.00;11.25;;;;;16.72;90.73;101971.97;5036446;28;46270;-47
2022/10/19 00:31:29;;;;;;;;;9.00;7.25;;;;;16.72;90.56;101974.66;5038225;28;45404;-47
2022/10/19 00:33:56;;;;;;;;;11.50;8.75;;;;;16.72;90.58;101974.66;5038207;28;45420;-46
2022/10/19 00:36:28;;;;;;;;;10.00;10.00;;;;;16.65;90.79;101963.72;5038680;28;45380;-44
2022/10/19 00:38:54;;;;;;;;;9.00;9.00;;;;;16.60;90.89;101952.59;5020302;28;46160;-45
2022/10/19 00:41:22;;;;;;;;;12.00;11.25;;;;;16.69;90.64;101964.25;5038088;28;45216;-48
2022/10/19 00:43:58;;;;;;;;;14.75;11.75;;;;;16.68;90.90;101955.31;5038140;28;45304;-47
2022/10/19 00:46:25;;;;;;;;;14.50;10.50;;;;;16.58;90.83;101934.94;5038509;28;45531;-46
2022/10/19 00:48:57;;;;;;;;;14.50;10.00;;;;;16.65;91.30;101944.91;5038064;28;46362;-49
2022/10/19 00:51:23;;;;;;;;;10.00;9.25;;;;;16.56;90.85;101928.84;5038192;28;45401;-49
2022/10/19 00:53:48;;;;;;;;;11.50;8.25;;;;;16.63;91.12;101938.81;5038033;28;45434;-45
2022/10/19 00:56:15;;;;;;;;;15.25;11.50;;;;;16.65;90.94;101947.59;5037959;28;45325;-46
2022/10/19 00:58:42;;;;;;;;;12.00;9.25;;;;;16.66;90.92;101946.59;5037263;28;46243;-48
2022/10/19 01:01:10;;;;;;;;;12.25;10.00;;;;;16.62;90.92;101929.09;5037788;28;45482;-48
2022/10/19 01:03:37;;;;;;;;;8.25;8.25;;;;;16.64;90.94;101936.97;5037979;28;45395;-46
2022/10/19 01:06:02;;;;;;;;;14.50;9.50;;;;;16.62;91.00;101930.94;5036487;28;45428;-44
2022/10/19 01:08:28;;;;;;;;;7.25;6.00;;;;;16.59;90.82;101934.78;5037765;28;46414;-45
2022/10/19 01:11:13;;;;;;;;;11.25;10.75;;;;;16.57;90.63;101936.78;5037926;28;45412;-44
2022/10/19 01:14:02;;;;;;;;;10.00;8.00;;;;;16.59;90.80;101942.00;5038012;28;45410;-48
2022/10/19 01:16:41;;;;;;;;;10.00;8.50;;;;;16.56;90.91;101929.72;5038178;28;45303;-45
2022/10/19 01:20:14;;;;;;;;;9.50;9.00;;;;;16.57;90.65;101925.19;5037432;28;45576;-45
2022/10/19 01:23:11;;;;;;;;;11.50;10.25;;;;;16.56;90.60;101931.56;4935150;28;45478;-49
2022/10/19 01:26:03;;;;;;;;;11.00;9.25;;;;;16.52;91.17;101932.84;4898955;28;45465;-46
2022/10/19 01:29:06;;;;;;;;;10.50;7.00;;;;;16.51;90.81;101918.59;4884824;29;45220;-45
2022/10/19 01:31:45;;;;;;;;;9.50;8.00;;;;;16.50;90.83;101921.44;4898945;28;46533;-45
2022/10/19 01:34:33;;;;;;;;;11.75;9.00;;;;;16.48;91.02;101921.63;4898827;29;45382;-44
2022/10/19 01:37:09;;;;;;;;;12.25;10.50;;;;;16.46;90.84;101912.84;4898950;29;45524;-45
2022/10/19 01:39:45;;;;;;;;;8.00;6.75;;;;;16.45;91.06;101911.19;4898735;29;45838;-45
2022/10/19 01:42:16;;;;;;;;;8.50;6.75;;;;;16.49;91.05;101922.44;4898580;29;47524;-47
2022/10/19 01:44:50;;;;;;;;;8.00;8.00;;;;;16.46;90.80;101920.91;4898409;29;45376;-44
2022/10/19 01:47:22;;;;;;;;;12.25;8.25;;;;;16.46;90.93;101923.59;4898829;29;45309;-45
2022/10/19 01:50:22;;;;;;;;;10.25;9.00;;;;;16.46;90.67;101912.84;4898504;29;45786;-45
2022/10/19 01:52:50;;;;;;;;;9.75;9.00;;;;;16.48;91.11;101913.56;4898304;29;46345;-44
2022/10/19 01:55:17;;;;;;;;;9.25;9.25;;;;;16.45;91.03;101903.13;4895636;29;45313;-48
2022/10/19 01:57:46;;;;;;;;;11.75;9.00;;;;;16.48;91.14;101904.66;4891575;28;45324;-45
2022/10/19 02:00:15;;;;;;;;;12.25;7.75;;;;;16.47;90.73;101895.72;4936741;28;45267;-46
2022/10/19 02:02:45;;;;;;;;;10.25;10.00;;;;;16.44;91.39;101896.91;5007995;28;47318;-46
2022/10/19 02:05:12;;;;;;;;;6.00;6.00;;;;;16.42;90.86;101890.84;5036707;28;45549;-45
2022/10/19 02:07:40;;;;;;;;;12.50;8.00;;;;;16.40;91.77;101892.84;5036836;28;45314;-46
2022/10/19 02:10:06;;;;;;;;;8.25;6.00;;;;;16.40;91.39;101887.47;5035967;28;45397;-44
2022/10/19 02:12:33;;;;;;;;;8.00;8.00;;;;;16.41;91.07;101891.00;5036578;28;45831;-48
2022/10/19 02:15:07;;;;;;;;;11.75;8.00;;;;;16.41;91.37;101885.63;5036627;28;45267;-45
2022/10/19 02:17:39;;;;;;;;;7.50;6.50;;;;;16.40;91.20;101881.25;5036781;28;45356;-47
2022/10/19 02:20:05;;;;;;;;;5.00;3.00;;;;;16.36;91.35;101877.22;5036751;28;45332;-45
2022/10/19 02:22:30;;;;;;;;;13.50;6.25;;;;;16.26;90.93;101852.28;5035368;28;46142;-45
2022/10/19 02:24:56;;;;;;;;;12.50;9.25;;;;;16.36;90.88;101869.16;5036558;28;45396;-43
2022/10/19 02:27:22;;;;;;;;;5.25;5.25;;;;;16.35;90.79;101871.00;5036862;28;45342;-48
2022/10/19 02:29:47;;;;;;;;;9.00;6.50;;;;;16.32;91.29;101865.94;5036827;28;45342;-44
2022/10/19 02:32:13;;;;;;;;;10.50;8.00;;;;;16.29;91.01;101858.19;5036462;28;46993;-46
2022/10/19 02:34:38;;;;;;;;;8.25;6.75;;;;;16.27;91.48;101854.00;5036438;28;45267;-45
2022/10/19 02:37:05;;;;;;;;;2.00;2.00;;;;;16.26;91.46;101854.97;5036461;28;45485;-45
2022/10/19 02:39:31;;;;;;;;;9.00;6.00;;;;;16.24;91.61;101857.81;5036628;28;45258;-44
2022/10/19 02:42:15;;;;;;;;;9.25;9.25;;;;;16.19;91.58;101844.88;5036322;28;45372;-46
2022/10/19 02:44:56;;;;;;;;;9.00;9.00;;;;;16.22;91.45;101841.00;5036232;28;45447;-45
2022/10/19 02:47:30;;;;;;;;;8.75;6.50;;;;;16.24;91.84;101843.56;5036345;28;45407;-48
2022/10/19 02:49:55;;;;;;;;;9.25;8.00;;;;;16.13;91.70;101825.84;5036513;28;45471;-44
2022/10/19 02:52:21;;;;;;;;;11.25;9.00;;;;;16.24;91.59;101830.13;5035920;28;46205;-45
2022/10/19 02:54:46;;;;;;;;;10.00;9.00;;;;;16.19;92.37;101825.22;5036162;28;45396;-45
2022/10/19 02:57:21;;;;;;;;;12.00;10.00;;;;;16.17;90.96;101811.09;5036320;28;45437;-46
2022/10/19 02:59:46;;;;;;;;;10.25;6.75;;;;;16.22;91.49;101819.53;5036350;28;45460;-46
2022/10/19 03:02:13;;;;;;;;;10.75;7.75;;;;;16.19;91.19;101814.50;5036155;28;46310;-45
2022/10/19 03:04:40;;;;;;;;;11.25;7.25;;;;;16.19;91.72;101811.81;5036261;28;45245;-45
2022/10/19 03:07:05;;;;;;;;;8.25;7.00;;;;;16.18;91.94;101810.97;5036191;28;45253;-47
2022/10/19 03:09:31;;;;;;;;;9.50;7.75;;;;;16.17;91.78;101808.44;5036450;28;45321;-45
2022/10/19 03:11:56;;;;;;;;;9.75;7.75;;;;;16.14;91.78;101803.41;5035871;28;45442;-48
2022/10/19 03:14:21;;;;;;;;;8.00;8.00;;;;;16.11;92.11;101795.66;5036240;28;45376;-46
2022/10/19 03:16:47;;;;;;;;;11.00;7.50;;;;;16.12;91.90;101800.84;5036402;28;45396;-45
2022/10/19 03:19:12;;;;;;;;;9.50;7.75;;;;;15.96;92.39;101790.81;5036197;28;45640;-47
2022/10/19 03:21:38;;;;;;;;;7.75;7.25;;;;;16.08;92.36;101812.91;5037468;28;46165;-45
2022/10/19 03:24:03;;;;;;;;;12.00;7.00;;;;;16.04;92.53;101800.78;5039359;28;45447;-48
2022/10/19 03:26:29;;;;;;;;;12.00;8.75;;;;;16.06;92.37;101806.84;5039508;28;45320;-48
2022/10/19 03:28:54;;;;;;;;;11.00;8.50;;;;;16.07;91.97;101805.00;5039593;28;45296;-44
2022/10/19 03:31:20;;;;;;;;;9.00;6.00;;;;;16.07;92.00;101796.97;5021130;28;46076;-46
2022/10/19 03:33:45;;;;;;;;;8.75;6.25;;;;;16.07;92.09;101794.28;5039119;28;45394;-45
2022/10/19 03:36:21;;;;;;;;;11.00;8.00;;;;;16.07;92.04;101794.28;5038626;28;45325;-48
2022/10/19 03:38:49;;;;;;;;;8.75;7.75;;;;;16.08;92.25;101798.63;5039333;28;45383;-46
2022/10/19 03:41:15;;;;;;;;;10.50;8.25;;;;;16.05;92.03;101793.56;5038859;28;46455;-45
2022/10/19 03:43:40;;;;;;;;;9.00;7.25;;;;;16.07;92.31;101796.97;5038874;28;45360;-45
2022/10/19 03:46:07;;;;;;;;;9.00;7.25;;;;;16.02;91.87;101789.38;5039225;28;45385;-47
2022/10/19 03:48:32;;;;;;;;;9.25;8.25;;;;;16.04;92.39;101790.06;5039345;28;45241;-46
2022/10/19 03:51:07;;;;;;;;;7.75;7.75;;;;;16.05;92.32;101785.53;5038699;28;45385;-47
2022/10/19 03:53:33;;;;;;;;;10.75;7.00;;;;;16.02;92.70;101781.31;5038889;28;45277;-43
2022/10/19 03:56:07;;;;;;;;;11.00;10.00;;;;;16.00;92.38;101783.31;5038662;28;45443;-46
2022/10/19 03:58:35;;;;;;;;;8.50;7.50;;;;;15.99;92.50;101789.69;5038394;28;45357;-47
2022/10/19 04:01:05;;;;;;;;;13.75;9.00;;;;;16.00;92.34;101780.63;5038485;28;46391;-45
2022/10/19 04:03:30;;;;;;;;;8.75;8.75;;;;;15.96;92.81;101784.63;5038790;28;45392;-46
2022/10/19 04:06:02;;;;;;;;;10.50;10.50;;;;;15.91;93.22;101771.69;5038453;28;45159;-44
2022/10/19 04:08:28;;;;;;;;;10.00;7.00;;;;;15.98;92.88;101779.13;5039188;28;45493;-45
2022/10/19 04:11:00;;;;;;;;;16.00;10.75;;;;;15.98;93.09;101784.47;5029671;28;46204;-46
2022/10/19 04:13:26;;;;;;;;;18.33;15.67;;;;;15.95;92.71;101777.56;5038493;28;46167;-47
2022/10/19 04:15:52;;;;;;;;;16.25;13.50;;;;;15.96;92.82;101792.66;5038752;28;45285;-45
2022/10/19 04:18:18;;;;;;;;;15.67;12.67;;;;;15.58;92.86;101724.94;5038796;28;45476;-47
2022/10/19 04:20:43;;;;;;;;;14.75;12.75;;;;;15.92;92.85;101775.19;5038170;28;46112;-45
2022/10/19 04:23:08;;;;;;;;;13.25;10.25;;;;;15.94;92.62;101784.78;5038482;28;45809;-47
2022/10/19 04:25:34;;;;;;;;;11.25;9.25;;;;;15.93;93.09;101779.59;5038602;28;45362;-46
2022/10/19 04:27:59;;;;;;;;;10.75;10.75;;;;;15.94;92.89;101773.22;5038628;28;45421;-44
2022/10/19 04:30:25;;;;;;;;;13.00;10.50;;;;;15.93;93.07;101776.91;5038134;28;45313;-44
2022/10/19 04:32:50;;;;;;;;;13.25;9.00;;;;;15.92;93.26;101785.94;5037457;28;45351;-45
2022/10/19 04:35:16;;;;;;;;;12.50;12.50;;;;;15.90;93.52;101775.38;5038339;28;45380;-46
2022/10/19 04:37:41;;;;;;;;;13.00;10.00;;;;;15.89;92.89;101767.47;5038274;28;45244;-48
2022/10/19 04:40:07;;;;;;;;;16.00;8.75;;;;;15.87;92.89;101767.63;5037960;28;45436;-44
2022/10/19 04:42:33;;;;;;;;;9.50;9.50;;;;;15.87;93.31;101775.66;5037963;28;45264;-46
2022/10/19 04:44:58;;;;;;;;;12.00;12.00;;;;;15.82;93.41;101766.41;5038181;28;45361;-45
2022/10/19 04:47:23;;;;;;;;;13.75;11.25;;;;;15.86;93.07;101771.31;5038219;28;45214;-47
2022/10/19 04:49:49;;;;;;;;;13.75;11.00;;;;;15.86;93.22;101771.31;5037736;28;46193;-47
2022/10/19 04:52:14;;;;;;;;;12.25;9.25;;;;;15.85;93.15;101766.94;5037691;28;45314;-44
2022/10/19 04:54:39;;;;;;;;;14.00;10.25;;;;;15.86;93.36;101760.56;5037967;28;45404;-47
2022/10/19 04:57:04;;;;;;;;;12.00;8.75;;;;;15.84;93.33;101756.34;5038074;28;45367;-45
2022/10/19 04:59:30;;;;;;;;;14.75;11.50;;;;;15.86;93.48;101754.38;5037786;28;45367;-48
2022/10/19 05:01:55;;;;;;;;;13.75;11.25;;;;;15.84;93.52;101749.13;5037780;28;45328;-44
2022/10/19 05:04:20;;;;;;;;;14.00;11.75;;;;;15.84;93.45;101733.03;5038250;28;45388;-47
2022/10/19 05:06:46;;;;;;;;;13.25;11.50;;;;;15.81;93.21;101724.50;5037851;28;45423;-44
2022/10/19 05:09:11;;;;;;;;;16.75;11.75;;;;;15.85;93.74;101725.88;5037817;28;45344;-45
2022/10/19 05:11:36;;;;;;;;;9.75;9.75;;;;;15.84;93.33;101719.63;5037743;28;45426;-46
2022/10/19 05:14:02;;;;;;;;;11.75;10.00;;;;;15.84;93.18;101716.09;5037732;28;45718;-49
2022/10/19 05:16:27;;;;;;;;;12.50;10.50;;;;;15.84;93.87;101721.47;5037963;28;45280;-48
2022/10/19 05:18:55;;;;;;;;;15.75;11.00;;;;;15.83;93.89;101717.13;5037433;28;46282;-45
2022/10/19 05:21:21;;;;;;;;;18.33;12.33;;;;;15.85;93.71;101715.13;5037445;28;45352;-46
2022/10/19 05:23:50;;;;;;;;;14.00;11.00;;;;;15.84;92.87;101716.94;5037827;28;45238;-49
2022/10/19 05:26:17;;;;;;;;;11.75;10.25;;;;;15.82;93.56;101716.28;5037538;28;45332;-45
2022/10/19 05:28:58;;;;;;;;;21.67;21.33;;;;;15.83;92.73;101722.47;5037284;28;46129;-46
2022/10/19 05:31:29;;;;;;;;;30.33;23.33;;;;;15.75;93.55;101709.00;5037420;28;45234;-47
2022/10/19 05:33:55;;;;;;;;;27.67;23.67;;;;;15.79;93.61;101718.44;5037320;28;45265;-46
2022/10/19 05:36:31;;;;;;;;;26.00;22.33;;;;;15.79;93.41;101710.38;5037245;28;45397;-46
2022/10/19 05:38:56;;;;;;;;;25.00;19.67;;;;;15.77;93.73;101707.03;5037099;28;46071;-47
2022/10/19 05:41:23;;;;;;;;;26.33;22.67;;;;;15.74;93.66;101702.81;5037043;28;45266;-44
2022/10/19 05:43:57;;;;;;;;;42.00;33.00;;;;;15.74;93.46;101701.97;5037310;28;45366;-45
2022/10/19 05:46:24;;;;;;;;;35.33;25.67;;;;;15.75;93.19;101691.06;5037590;28;45352;-44
2022/10/19 05:48:49;;;;;;;;;23.67;20.67;;;;;15.74;92.79;101691.25;5036575;28;48712;-46
2022/10/19 05:51:17;;;;;;;;;19.33;15.00;;;;;15.72;92.88;101686.03;5037297;28;45388;-42
2022/10/19 05:53:42;;;;;;;;;12.67;11.67;;;;;15.71;93.71;101687.84;5037633;28;45432;-47
2022/10/19 05:56:12;;;;;;;;;14.67;12.00;;;;;15.69;93.52;101689.88;5037565;28;45363;-47
2022/10/19 05:58:38;;;;;;;;;12.00;12.00;;;;;15.70;93.28;101690.69;5036753;28;47507;-44
2022/10/19 06:01:03;;;;;;;;;15.75;12.75;;;;;15.56;93.27;101670.63;5036964;28;45394;-45
2022/10/19 06:03:29;;;;;;;;;13.50;11.00;;;;;15.70;93.42;101693.38;5037469;28;45194;-44
2022/10/19 06:05:54;;;;;;;;;13.00;9.00;;;;;15.67;93.13;101693.69;5037375;28;45477;-43
2022/10/19 06:08:21;;;;;;;;;16.00;13.00;;;;;15.62;93.54;101698.66;5036014;28;45513;-43
2022/10/19 06:10:48;;;;;;;;;14.33;14.33;;;;;15.64;93.07;101691.31;5036809;28;45355;-44
2022/10/19 06:13:15;;;;;;;;;17.00;14.00;;;;;15.59;93.03;101691.78;5036883;28;45387;-46
2022/10/19 06:15:40;;;;;;;;;16.67;12.67;;;;;15.64;93.34;101704.72;5036962;28;45241;-48
2022/10/19 06:18:07;;;;;;;;;16.67;13.67;;;;;15.55;93.05;101686.84;5036667;28;45400;-47
2022/10/19 06:20:41;;;;;;;;;18.67;13.00;;;;;15.66;93.04;101700.06;5036604;28;45214;-46
2022/10/19 06:23:07;;;;;;;;;12.33;11.33;;;;;15.68;93.35;101704.28;5036598;28;45294;-44
2022/10/19 06:25:35;;;;;;;;;12.50;12.00;;;;;15.73;93.14;101698.44;5036964;28;45354;-48
2022/10/19 06:28:01;;;;;;;;;15.00;10.00;;;;;15.77;92.41;101705.19;5036584;28;45321;-46
2022/10/19 06:30:27;;;;;;;;;19.25;11.00;;;;;15.79;92.32;101705.00;5036458;28;45313;-47
2022/10/19 06:32:52;;;;;;;;;9.50;9.50;;;;;15.83;91.79;101706.38;5036651;28;45387;-48
2022/10/19 06:35:18;;;;;;;;;13.25;12.25;;;;;15.29;91.35;101606.41;5036673;28;45300;-46
2022/10/19 06:37:44;;;;;;;;;12.00;10.67;;;;;15.91;91.20;101699.22;5036475;28;47143;-46
2022/10/19 06:40:09;;;;;;;;;11.50;10.50;;;;;15.97;90.62;101703.13;5036529;28;45234;-47
2022/10/19 06:42:38;;;;;;;;;15.75;12.25;;;;;16.04;90.63;101703.31;5036668;28;45440;-47
2022/10/19 06:45:08;;;;;;;;;13.00;10.50;;;;;16.11;90.31;101697.16;5036734;28;45258;-47
2022/10/19 06:47:34;;;;;;;;;11.25;9.75;;;;;16.16;89.85;101694.00;5036278;28;46650;-48
2022/10/19 06:49:59;;;;;;;;;12.00;12.00;;;;;16.21;89.15;101695.19;5036502;28;45396;-47
2022/10/19 06:52:25;;;;;;;;;14.50;11.25;;;;;16.15;88.91;101678.91;5036410;28;45331;-45
2022/10/19 06:54:50;;;;;;;;;8.75;6.00;;;;;16.29;88.71;101691.72;5036697;28;45407;-46
2022/10/19 06:57:15;;;;;;;;;14.33;13.00;;;;;16.37;88.42;101696.28;5038960;28;46175;-44
2022/10/19 06:59:41;;;;;;;;;16.75;10.25;;;;;16.40;88.16;101698.66;5039648;28;45443;-47
2022/10/19 07:02:06;;;;;;;;;16.00;13.00;;;;;16.43;87.49;101695.63;5039854;28;45201;-47
2022/10/19 07:04:31;;;;;;;;;16.75;10.75;;;;;16.48;87.17;101696.00;5040168;28;45314;-51
2022/10/19 07:06:57;;;;;;;;;18.75;11.00;;;;;16.52;87.18;101686.63;5039554;28;45979;-46
2022/10/19 07:09:22;;;;;;;;;24.67;16.67;;;;;16.62;86.89;101684.63;5039707;28;45222;-47
2022/10/19 07:11:47;;;;;;;;;15.50;11.50;;;;;16.70;86.99;101686.50;5039581;28;45306;-48
2022/10/19 07:14:13;;;;;;;;;14.25;11.50;;;;;16.77;85.61;101690.25;5039975;28;45420;-48
2022/10/19 07:16:39;;;;;;;;;11.50;11.25;;;;;16.85;85.59;101678.66;5039606;28;46114;-45
2022/10/19 07:19:05;;;;;;;;;13.25;11.75;;;;;16.93;85.28;101673.28;5039292;28;45375;-45
2022/10/19 07:21:30;;;;;;;;;13.50;9.50;;;;;17.04;85.03;101669.47;5039534;28;45515;-47
2022/10/19 07:23:55;;;;;;;;;11.50;10.50;;;;;17.11;84.38;101673.19;5039627;28;45499;-45
2022/10/19 07:26:26;;;;;;;;;13.75;10.25;;;;;17.19;83.18;101657.88;5039487;28;45322;-46
2022/10/19 07:28:55;;;;;;;;;13.50;11.00;;;;;17.22;83.71;101656.69;5039437;28;45344;-45
2022/10/19 07:31:22;;;;;;;;;11.00;11.00;;;;;17.32;83.40;101669.97;5039408;28;45462;-45
2022/10/19 07:34:15;;;;;;;;;11.25;8.50;;;;;17.43;82.49;101670.47;5039829;28;45281;-46
2022/10/19 07:36:44;;;;;;;;;17.75;13.25;;;;;17.49;82.46;101671.66;5035351;28;46249;-45
2022/10/19 07:39:11;;;;;;;;;13.00;10.00;;;;;17.57;81.79;101671.66;5038960;28;45335;-46
2022/10/19 07:41:37;;;;;;;;;13.00;9.25;;;;;17.64;81.05;101675.31;5039168;28;45410;-47
2022/10/19 07:44:02;;;;;;;;;14.25;12.25;;;;;17.62;81.51;101658.53;5039600;28;45301;-45
2022/10/19 07:46:35;;;;;;;;;18.00;14.50;;;;;17.75;81.08;101665.25;5039015;28;45456;-46
2022/10/19 07:49:03;;;;;;;;;15.00;12.75;;;;;17.82;80.75;101664.38;5039097;28;45230;-43
2022/10/19 07:51:29;;;;;;;;;18.00;14.00;;;;;17.94;80.25;101681.00;5039005;28;45345;-47
2022/10/19 07:53:54;;;;;;;;;12.75;12.00;;;;;18.03;79.86;101663.81;5039044;28;45372;-46
2022/10/19 07:56:22;;;;;;;;;19.50;18.00;;;;;18.11;79.60;101668.34;5038562;28;45701;-44
2022/10/19 07:58:52;;;;;;;;;13.25;10.75;;;;;18.10;79.43;101651.34;5038707;28;45281;-46
2022/10/19 08:01:23;;;;;;;;;10.75;10.50;;;;;18.09;79.27;101656.94;5038954;28;45397;-44
2022/10/19 08:03:51;;;;;;;;;14.00;13.25;;;;;18.30;79.17;101667.94;5038956;28;45442;-45
2022/10/19 08:06:18;;;;;;;;;15.25;10.25;;;;;18.36;78.47;101666.41;5038589;28;46955;-47
2022/10/19 08:08:47;;;;;;;;;17.75;13.25;;;;;18.53;77.99;101664.47;5037344;28;45318;-46
2022/10/19 08:11:16;;;;;;;;;13.75;13.50;;;;;18.66;78.02;101657.47;5038768;28;45439;-46
2022/10/19 08:13:42;;;;;;;;;15.25;14.00;;;;;18.76;77.08;101651.06;5038797;28;45150;-47
2022/10/19 08:16:26;;;;;;;;;14.00;14.00;;;;;19.01;77.12;101663.38;5038355;28;46368;-48
2022/10/19 08:18:56;;;;;;;;;16.50;14.75;;;;;19.08;76.55;101660.78;5038539;28;45201;-47
2022/10/19 08:21:22;;;;;;;;;14.00;12.75;;;;;19.18;75.49;101661.38;5038619;28;45281;-45
2022/10/19 08:23:47;;;;;;;;;17.25;13.75;;;;;19.20;74.58;101660.16;5038503;28;45596;-46
2022/10/19 08:26:12;;;;;;;;;12.00;12.00;;;;;19.32;75.10;101657.03;5038300;28;46126;-47
2022/10/19 08:28:38;;;;;;;;;15.50;14.50;;;;;19.47;74.88;101655.22;5038494;28;45399;-45
2022/10/19 08:31:14;;;;;;;;;17.25;11.50;;;;;19.47;74.61;101628.25;5038501;28;45333;-45
2022/10/19 08:33:39;;;;;;;;;13.75;12.50;;;;;19.73;73.08;101654.84;5038573;28;45272;-44
2022/10/19 08:36:09;;;;;;;;;15.50;12.25;;;;;19.90;73.83;101648.22;5038193;28;45610;-45
2022/10/19 08:38:35;;;;;;;;;16.00;13.50;;;;;20.15;72.20;101651.47;5038318;28;45523;-46
2022/10/19 08:41:37;;;;;;;;;11.75;11.75;;;;;20.37;71.61;101646.97;5038676;28;45407;-47
2022/10/19 08:44:19;;;;;;;;;12.50;10.25;;;;;20.55;71.10;101649.28;5038807;28;45368;-48
2022/10/19 08:46:47;;;;;;;;;13.75;13.75;;;;;20.84;69.90;101642.97;5038678;28;46431;-46
2022/10/19 08:49:18;;;;;;;;;12.00;12.00;;;;;21.27;69.54;101642.09;5038457;28;45269;-47
2022/10/19 08:51:50;;;;;;;;;12.80;11.20;;;;;21.72;67.39;101637.28;5038344;28;45426;-48
2022/10/19 08:54:17;;;;;;;;;11.00;10.00;;;;;21.86;68.89;101631.72;5038464;28;45358;-52
2022/10/19 08:56:59;;;;;;;;;12.00;10.40;;;;;21.82;67.53;101619.59;5038172;28;46466;-49
2022/10/19 08:59:56;;;;;;;;;11.20;9.40;;;;;21.71;67.28;101635.59;5038013;28;45461;-47
2022/10/19 09:02:38;;;;;;;;;8.40;8.20;;;;;21.45;67.00;101639.81;5037117;28;45337;-45
2022/10/19 09:05:22;;;;;;;;;13.20;11.00;;;;;21.15;67.17;101628.25;5038475;28;45325;-48
2022/10/19 09:07:52;;;;;;;;;11.60;10.80;;;;;21.48;67.27;101636.69;5037803;28;46262;-47
2022/10/19 09:10:24;;;;;;;;;12.80;10.60;;;;;21.49;66.39;101629.38;5037706;28;45649;-47
2022/10/19 09:12:55;;;;;;;;;11.00;11.00;;;;;21.87;65.71;101635.28;5037814;28;45351;-48
2022/10/19 09:15:40;;;;;;;;;10.20;9.00;;;;;22.44;64.67;101630.56;5038179;28;45356;-49
2022/10/19 09:18:21;;;;;;;;;10.00;9.80;;;;;22.67;63.38;101612.09;5037093;28;48412;-47
2022/10/19 09:20:49;;;;;;;;;9.80;9.40;;;;;22.79;61.81;101621.25;5037275;28;45368;-47
2022/10/19 09:23:30;;;;;;;;;13.00;11.00;;;;;22.59;64.66;101610.38;5037431;28;45317;-45
2022/10/19 09:25:56;;;;;;;;;9.60;9.00;;;;;22.84;61.90;101615.25;5037839;28;45425;-47
2022/10/19 09:28:27;;;;;;;;;9.20;9.20;;;;;23.25;61.82;101616.94;5037408;28;45352;-46
2022/10/19 09:30:56;;;;;;;;;11.40;9.00;;;;;23.75;63.59;101604.56;5037448;28;45447;-47
2022/10/19 09:33:29;;;;;;;;;10.00;9.80;;;;;24.23;61.63;101590.63;5036657;28;45436;-48
2022/10/19 09:35:57;;;;;;;;;9.20;9.20;;;;;24.84;56.32;101611.81;5037621;28;45482;-48
2022/10/19 09:38:25;;;;;;;;;10.00;8.20;;;;;25.85;54.82;101604.47;5037182;28;46311;-45
2022/10/19 09:40:51;;;;;;;;;9.20;6.40;;;;;26.77;51.22;101601.59;5019204;28;45396;-45
2022/10/19 09:43:20;;;;;;;;;8.25;6.25;;;;;27.23;50.67;101602.78;5037522;28;45261;-44
2022/10/19 09:46:05;;;;;;;;;10.80;9.20;;;;;28.07;47.76;101601.41;5036358;28;45345;-48
2022/10/19 09:48:49;;;;;;;;;6.60;6.60;;;;;28.06;52.96;101601.63;5037246;28;46421;-46
2022/10/19 09:51:17;;;;;;;;;8.60;8.60;;;;;28.07;48.94;101603.31;5037305;28;45526;-44
2022/10/19 09:53:58;;;;;;;;;9.80;8.20;;;;;28.28;47.55;101605.38;5037507;28;45511;-46
2022/10/19 09:56:26;;;;;;;;;9.00;6.80;;;;;28.26;47.32;101593.81;5037129;28;45301;-44
2022/10/19 09:58:56;;;;;;;;;9.60;9.60;;;;;28.04;47.81;101593.66;5036778;28;47065;-45
2022/10/19 10:01:39;;;;;;;;;12.00;10.00;;;;;27.27;49.43;101549.34;5036864;28;45350;-45
2022/10/19 10:04:17;;;;;;;;;8.80;7.80;;;;;27.56;48.74;101583.88;5037397;28;45297;-44
2022/10/19 10:06:46;;;;;;;;;8.80;8.00;;;;;28.71;46.60;101582.09;5037139;28;45324;-45
2022/10/19 10:09:17;;;;;;;;;8.60;8.40;;;;;29.67;43.00;101581.16;5036574;28;46233;-47
2022/10/19 10:11:46;;;;;;;;;7.60;6.60;;;;;30.45;43.03;101563.44;5036807;28;45301;-46
2022/10/19 10:14:25;;;;;;;;;7.20;6.80;;;;;31.53;40.65;101574.19;5037223;28;45357;-46
2022/10/19 10:16:56;;;;;;;;;4.80;4.80;;;;;31.72;39.64;101562.72;5037229;28;45256;-46
2022/10/19 10:19:26;;;;;;;;;8.40;8.40;;;;;32.33;37.87;101562.13;5035884;28;45368;-48
2022/10/19 10:21:54;;;;;;;;;12.00;8.40;;;;;32.83;39.17;101557.75;5036810;28;45310;-49
2022/10/19 10:24:22;;;;;;;;;8.00;8.00;;;;;33.45;37.26;101553.84;5036704;28;45612;-46
2022/10/19 10:26:48;;;;;;;;;9.80;8.40;;;;;33.69;36.30;101557.63;5036966;28;45352;-46
2022/10/19 10:29:20;;;;;;;;;8.20;7.60;;;;;33.56;39.66;101558.25;5036807;28;46966;-46
2022/10/19 10:31:51;;;;;;;;;10.40;9.40;;;;;33.49;37.91;101547.50;5038322;28;45439;-45
2022/10/19 10:34:36;;;;;;;;;12.00;9.20;;;;;33.36;37.51;101542.56;5040412;28;45443;-47
2022/10/19 10:37:04;;;;;;;;;10.80;8.80;;;;;32.49;37.62;101539.88;5040409;28;45295;-46
2022/10/19 10:39:30;;;;;;;;;5.60;4.00;;;;;30.96;40.56;101538.34;5039923;28;46174;-45
2022/10/19 10:42:04;;;;;;;;;9.75;9.00;;;;;29.81;41.14;101528.41;5039851;28;45498;-48
2022/10/19 10:44:33;;;;;;;;;11.80;10.00;;;;;29.48;45.30;101517.53;5040202;28;45488;-48
2022/10/19 10:47:01;;;;;;;;;6.00;6.00;;;;;29.83;41.10;101522.66;5040381;28;45507;-47
2022/10/19 10:49:35;;;;;;;;;7.40;7.00;;;;;30.29;41.95;101517.69;5039925;28;45232;-46
2022/10/19 10:52:06;;;;;;;;;8.00;7.00;;;;;30.64;41.91;101514.47;5040006;28;45325;-47
2022/10/19 10:54:32;;;;;;;;;9.80;7.80;;;;;30.33;40.67;101518.84;5039879;28;45407;-47
2022/10/19 10:57:04;;;;;;;;;11.50;7.75;;;;;29.91;43.92;101518.63;5039797;28;45443;-45
2022/10/19 10:59:37;;;;;;;;;6.80;6.80;;;;;29.34;44.28;101497.91;5039598;28;47006;-47
2022/10/19 11:02:20;;;;;;;;;6.80;6.80;;;;;29.45;43.61;101505.16;5039764;28;45432;-46
2022/10/19 11:04:54;;;;;;;;;10.80;8.00;;;;;29.42;44.05;101507.59;5039653;28;45400;-46
2022/10/19 11:07:24;;;;;;;;;7.80;6.00;;;;;29.36;42.81;101501.19;5039974;28;45392;-47
2022/10/19 11:09:57;;;;;;;;;6.80;6.20;;;;;29.44;42.42;101506.25;5039501;28;46137;-48
2022/10/19 11:12:36;;;;;;;;;9.00;7.20;;;;;29.60;43.16;101495.53;5039474;28;45270;-45
2022/10/19 11:15:10;;;;;;;;;7.60;7.60;;;;;29.85;41.96;101486.75;5039766;28;45367;-46
2022/10/19 11:17:40;;;;;;;;;7.60;7.20;;;;;30.26;41.37;101477.91;5039922;28;45443;-47
2022/10/19 11:20:09;;;;;;;;;10.60;7.60;;;;;30.68;42.45;101479.06;5039092;28;47236;-48
2022/10/19 11:22:45;;;;;;;;;8.20;7.40;;;;;30.64;39.87;101462.28;5039567;28;45620;-47
2022/10/19 11:25:34;;;;;;;;;10.40;7.80;;;;;30.60;41.63;101461.16;5039379;28;45523;-47
2022/10/19 11:27:59;;;;;;;;;6.00;6.00;;;;;31.21;39.29;101457.97;5039777;28;45361;-46
2022/10/19 11:30:25;;;;;;;;;9.50;8.50;;;;;31.82;37.68;101449.97;5039506;28;45289;-48